Tropical Cyclones
[Index]
Main Index Home Page Stock Weather Photos Extreme Storms Discussion Storm News and Storm Chasing Reports Tropical Cyclones / Hurricanes / Typhoons Weather Data and Links Wild Fires / Bushfires Weather Observation Techniques Weather Picture Catalogue Tornado Pictures and Reports Stock Video Footage and DVDs for sale
Season 1962-1963 Tropical Cyclone 196313 Track Map
Season 1962-1963 Summaries: [BoM-AU] [JTWC-AU] [JTWC-SIO] [JTWC-SPAC] [JTWC-SH]
<<- Previous TC | JTWC 1962-1963 Season | Next TC ->>

click for intensity scale information  Lat/long Grid: Show Hide

 Date Labels: Show Hide

Joint Typhoon Warning Centre Cyclone Data

Name: 196313
Number: 460 / 6313

07 Jan 1963 00:00 UTC to 14 Jan 1963 18:00 UTC

    date/time    lat    long     hPa   cat  kts
1963-01-07 00   12.0   117.0                              
1963-01-07 06   12.1   115.9                              
1963-01-07 12   12.3   114.8                              
1963-01-07 18   12.7   113.8                              
1963-01-08 00   13.0   113.1                              
1963-01-08 06   13.2   112.7                              
1963-01-08 12   13.4   112.2                              
1963-01-08 18   13.8   111.7                              
1963-01-09 00   14.2   111.1                              
1963-01-09 06   14.6   110.5                              
1963-01-09 12   15.1   109.9                              
1963-01-09 18   15.6   109.4                              
1963-01-10 00   16.1   109.0                              
1963-01-10 06   16.5   108.8                              
1963-01-10 12   17.0   108.8                              
1963-01-10 18   17.5   108.9                              
1963-01-11 00   18.1   109.2                              
1963-01-11 06   18.8   109.6                              
1963-01-11 12   19.5   110.1                              
1963-01-11 18   20.3   110.6                              
1963-01-12 00   21.2   111.1                              
1963-01-12 06   22.3   111.5                              
1963-01-12 12   23.5   111.3                              
1963-01-12 18   24.5   110.2                              
1963-01-13 00   25.1   109.2                              
1963-01-13 06   25.2   108.4                              
1963-01-13 12   25.2   107.7                              
1963-01-13 18   25.0   106.9                              
1963-01-14 00   25.0   106.1                              
1963-01-14 06   25.7   105.1                              
1963-01-14 12   26.8   104.3                              
1963-01-14 18   27.9   103.6                              
Winds are 1-min average.

Tropical cyclone tracks developed by Michael Bath using data from the Joint Typhoon Warning Centre Best Tracks and Google Maps.


[Australian Severe Weather index] [Copyright Notice] [Email Contacts] [Search This Site] [Privacy Policy]
Document: tropical_cyclone_196313.htm Updated: 18 September 2016